createdAt,value
2018-07-09T00:02:03.225Z,3.90
2018-07-09T00:04:31.296Z,4.00
2018-07-09T00:06:59.345Z,3.80
2018-07-09T00:09:27.414Z,3.83
2018-07-09T00:11:55.467Z,5.07
2018-07-09T00:14:23.510Z,4.20
2018-07-09T00:16:51.552Z,4.47
2018-07-09T00:19:19.409Z,4.00
2018-07-09T00:21:47.486Z,4.30
2018-07-09T00:24:15.519Z,4.03
2018-07-09T00:26:43.585Z,4.20
2018-07-09T00:29:11.621Z,3.90
2018-07-09T00:31:39.653Z,4.10
2018-07-09T00:34:07.685Z,4.33
2018-07-09T00:36:35.540Z,4.07
2018-07-09T00:39:04.735Z,3.97
2018-07-09T00:41:32.788Z,4.10
2018-07-09T00:44:00.886Z,4.07
2018-07-09T00:46:28.801Z,4.97
2018-07-09T00:48:56.837Z,4.20
2018-07-09T00:51:24.685Z,4.80
2018-07-09T00:53:52.716Z,4.40
2018-07-09T00:56:20.763Z,4.40
2018-07-09T00:58:48.797Z,5.30
2018-07-09T01:01:16.858Z,4.67
2018-07-09T01:03:44.901Z,4.47
2018-07-09T01:06:12.749Z,3.87
2018-07-09T01:08:40.801Z,3.90
2018-07-09T01:11:20.312Z,4.03
2018-07-09T01:13:48.353Z,4.43
2018-07-09T01:16:16.424Z,4.60
2018-07-09T01:18:44.516Z,4.30
2018-07-09T01:21:13.859Z,3.97
2018-07-09T01:23:42.051Z,3.83
2018-07-09T01:26:10.224Z,5.10
2018-07-09T01:28:39.411Z,3.73
2018-07-09T01:31:07.440Z,4.30
2018-07-09T01:33:35.489Z,4.20
2018-07-09T01:36:03.527Z,4.20
2018-07-09T01:38:31.571Z,4.23
2018-07-09T01:40:59.601Z,4.30
2018-07-09T01:43:27.639Z,4.20
2018-07-09T01:45:55.709Z,3.90
2018-07-09T01:48:23.782Z,5.07
2018-07-09T01:50:51.862Z,4.70
2018-07-09T01:53:20.107Z,5.20
2018-07-09T01:55:48.201Z,5.00
2018-07-09T01:58:16.065Z,4.97
2018-07-09T02:00:44.129Z,4.57
2018-07-09T02:03:12.202Z,5.07
2018-07-09T02:05:40.262Z,4.60
2018-07-09T02:08:08.324Z,4.73
2018-07-09T02:10:36.358Z,4.83
2018-07-09T02:13:04.501Z,4.03
2018-07-09T02:15:32.535Z,4.30
2018-07-09T02:18:00.581Z,5.13
2018-07-09T02:20:28.862Z,4.60
2018-07-09T02:22:57.057Z,4.80
2018-07-09T02:25:25.085Z,4.23
2018-07-09T02:27:53.138Z,3.70
2018-07-09T02:30:21.194Z,4.40
2018-07-09T02:32:49.230Z,3.90
2018-07-09T02:35:17.351Z,4.30
2018-07-09T02:37:45.348Z,4.73
2018-07-09T02:40:13.386Z,5.00
2018-07-09T02:42:41.522Z,4.90
2018-07-09T02:45:09.545Z,4.23
2018-07-09T02:47:37.603Z,4.47
2018-07-09T02:50:05.770Z,5.50
2018-07-09T02:52:33.836Z,6.03
2018-07-09T02:55:01.911Z,5.37
2018-07-09T02:57:29.958Z,7.00
2018-07-09T02:59:58.012Z,6.20
2018-07-09T03:02:26.037Z,6.23
2018-07-09T03:04:54.761Z,7.30
2018-07-09T03:07:22.805Z,7.57
2018-07-09T03:09:50.842Z,8.57
2018-07-09T03:12:19.244Z,6.40
2018-07-09T03:14:47.745Z,7.70
2018-07-09T03:17:15.779Z,7.63
2018-07-09T03:19:43.849Z,8.50
2018-07-09T03:22:12.053Z,7.90
2018-07-09T03:24:40.130Z,7.90
2018-07-09T03:27:08.148Z,8.60
2018-07-09T03:29:36.221Z,7.67
2018-07-09T03:32:04.343Z,8.43
2018-07-09T03:34:32.447Z,7.70
2018-07-09T03:37:00.486Z,7.47
2018-07-09T03:39:28.541Z,8.00
2018-07-09T03:41:56.579Z,7.30
2018-07-09T03:44:24.620Z,7.37
2018-07-09T03:46:52.453Z,7.40
2018-07-09T03:49:20.522Z,7.60
2018-07-09T03:51:48.558Z,7.27
2018-07-09T03:54:16.613Z,8.13
2018-07-09T03:56:44.673Z,7.70
2018-07-09T03:59:12.726Z,8.73
2018-07-09T04:01:40.806Z,6.73
2018-07-09T04:04:08.866Z,8.03
2018-07-09T04:06:36.961Z,8.10
2018-07-09T04:09:05.122Z,8.90
2018-07-09T04:11:34.017Z,8.50
2018-07-09T04:14:02.096Z,8.10
2018-07-09T04:16:30.153Z,9.10
2018-07-09T04:18:58.204Z,8.80
2018-07-09T04:21:26.245Z,8.27
2018-07-09T04:23:54.292Z,9.20
2018-07-09T04:26:22.396Z,9.80
2018-07-09T04:28:50.380Z,9.80
2018-07-09T04:31:18.249Z,10.83
2018-07-09T04:33:46.303Z,9.43
2018-07-09T04:36:14.625Z,10.23
2018-07-09T04:38:42.690Z,8.73
2018-07-09T04:41:10.754Z,9.97
2018-07-09T04:43:38.797Z,8.33
2018-07-09T04:46:07.110Z,9.20
2018-07-09T04:48:35.190Z,9.60
2018-07-09T04:51:03.295Z,9.17
2018-07-09T04:53:31.374Z,10.33
2018-07-09T04:55:59.389Z,10.43
2018-07-09T04:58:27.437Z,10.60
2018-07-09T05:00:55.546Z,10.37
2018-07-09T05:03:23.610Z,8.70
2018-07-09T05:05:51.678Z,7.80
2018-07-09T05:08:19.749Z,9.40
2018-07-09T05:10:47.780Z,9.50
2018-07-09T05:13:15.855Z,9.40
2018-07-09T05:15:45.296Z,9.07
2018-07-09T05:18:13.993Z,8.77
2018-07-09T05:20:42.100Z,9.43
2018-07-09T05:23:10.125Z,8.70
2018-07-09T05:25:38.173Z,8.13
2018-07-09T05:28:06.242Z,7.97
2018-07-09T05:30:34.289Z,9.00
2018-07-09T05:33:02.350Z,8.77
2018-07-09T05:35:30.453Z,8.57
2018-07-09T05:37:58.363Z,9.10
2018-07-09T05:40:26.422Z,8.93
2018-07-09T05:42:54.686Z,7.27
2018-07-09T05:45:22.937Z,8.30
2018-07-09T05:47:51.006Z,8.10
2018-07-09T05:50:19.055Z,7.37
2018-07-09T05:52:47.085Z,8.43
2018-07-09T05:55:15.246Z,8.67
2018-07-09T05:57:43.343Z,8.03
2018-07-09T06:00:11.480Z,7.93
2018-07-09T06:02:39.526Z,8.77
2018-07-09T06:05:07.812Z,8.80
2018-07-09T06:07:35.849Z,8.90
2018-07-09T06:10:03.931Z,9.27
2018-07-09T06:12:31.973Z,8.00
2018-07-09T06:15:00.065Z,9.10
2018-07-09T06:17:28.062Z,8.50
2018-07-09T06:19:56.114Z,10.10
2018-07-09T06:22:24.165Z,9.30
2018-07-09T06:24:52.229Z,8.30
2018-07-09T06:27:20.409Z,8.63
2018-07-09T06:29:49.570Z,7.67
2018-07-09T06:32:17.614Z,8.10
2018-07-09T06:34:45.884Z,8.63
2018-07-09T06:37:14.533Z,7.13
2018-07-09T06:39:42.583Z,7.40
2018-07-09T06:42:10.770Z,7.53
2018-07-09T06:44:38.920Z,7.17
2018-07-09T06:47:07.051Z,7.57
2018-07-09T06:49:35.629Z,6.80
2018-07-09T06:52:03.666Z,6.90
2018-07-09T06:54:31.724Z,6.80
2018-07-09T06:56:59.786Z,7.93
2018-07-09T06:59:27.833Z,6.57
2018-07-09T07:01:55.885Z,6.57
2018-07-09T07:04:23.934Z,7.10
2018-07-09T07:06:51.972Z,7.10
2018-07-09T07:09:20.014Z,6.47
2018-07-09T07:11:47.845Z,6.47
2018-07-09T07:14:15.913Z,6.70
2018-07-09T07:16:44.022Z,6.80
2018-07-09T07:19:12.034Z,5.23
2018-07-09T07:21:40.138Z,6.13
2018-07-09T07:24:08.351Z,6.07
2018-07-09T07:26:36.344Z,5.83
2018-07-09T07:29:04.280Z,6.00
2018-07-09T07:31:32.329Z,6.70
2018-07-09T07:34:00.370Z,6.43
2018-07-09T07:36:28.417Z,6.23
2018-07-09T07:38:56.462Z,5.93
2018-07-09T07:41:24.510Z,6.90
2018-07-09T07:43:52.368Z,6.90
2018-07-09T07:46:20.409Z,5.63
2018-07-09T07:48:48.490Z,5.27
2018-07-09T07:51:16.540Z,4.47
2018-07-09T07:53:44.604Z,4.43
2018-07-09T07:56:12.683Z,4.37
2018-07-09T07:58:40.569Z,5.20
2018-07-09T08:01:08.676Z,4.50
2018-07-09T08:03:36.713Z,5.03
2018-07-09T08:06:06.221Z,4.20
2018-07-09T08:08:34.998Z,4.20
2018-07-09T08:11:10.911Z,4.23
2018-07-09T08:13:31.106Z,4.53
2018-07-09T08:15:59.147Z,4.47
2018-07-09T08:18:27.185Z,3.40
2018-07-09T08:20:55.254Z,4.97
2018-07-09T08:23:23.386Z,3.83
2018-07-09T08:25:51.429Z,4.00
2018-07-09T08:28:19.466Z,3.30
2018-07-09T08:30:47.534Z,3.60
2018-07-09T08:33:15.598Z,3.87
2018-07-09T08:35:43.646Z,3.47
2018-07-09T08:38:11.698Z,3.20
2018-07-09T08:40:39.914Z,3.40
2018-07-09T08:43:08.003Z,3.77
2018-07-09T08:45:36.228Z,2.87
2018-07-09T08:48:04.305Z,3.00
2018-07-09T08:50:32.281Z,2.70
2018-07-09T08:53:00.359Z,3.20
2018-07-09T08:55:28.405Z,2.77
2018-07-09T08:57:56.458Z,2.13
2018-07-09T09:00:24.521Z,2.70
2018-07-09T09:02:52.684Z,2.90
2018-07-09T09:05:20.714Z,2.47
2018-07-09T09:07:48.866Z,3.40
2018-07-09T09:10:16.954Z,3.10
2018-07-09T09:12:44.845Z,3.10
2018-07-09T09:15:12.901Z,3.13
2018-07-09T09:17:40.977Z,2.90
2018-07-09T09:20:09.014Z,3.53
2018-07-09T09:22:37.080Z,3.50
2018-07-09T09:25:05.109Z,4.37
2018-07-09T09:27:33.163Z,3.77
2018-07-09T09:30:01.365Z,3.13
2018-07-09T09:32:29.450Z,3.27
2018-07-09T09:34:57.479Z,2.80
2018-07-09T09:37:25.533Z,3.20
2018-07-09T09:39:53.569Z,2.67
2018-07-09T09:42:21.621Z,3.60
2018-07-09T09:44:49.669Z,2.20
2018-07-09T09:47:17.801Z,2.93
2018-07-09T09:49:45.865Z,2.03
2018-07-09T09:52:13.935Z,2.43
2018-07-09T09:54:41.987Z,2.80
2018-07-09T09:57:10.177Z,3.10
2018-07-09T09:59:38.207Z,1.60
2018-07-09T10:02:06.248Z,2.07
2018-07-09T10:04:34.293Z,2.47
2018-07-09T10:07:02.602Z,2.27
2018-07-09T10:09:30.682Z,1.97
2018-07-09T10:11:58.750Z,2.03
2018-07-09T10:14:26.789Z,2.37
2018-07-09T10:16:54.857Z,2.20
2018-07-09T10:19:22.882Z,2.70
2018-07-09T10:21:50.928Z,2.80
2018-07-09T10:24:18.965Z,3.10
2018-07-09T10:26:46.993Z,2.70
2018-07-09T10:29:15.993Z,2.57
2018-07-09T10:31:44.049Z,2.30
2018-07-09T10:34:12.268Z,2.47
2018-07-09T10:36:40.293Z,2.23
2018-07-09T10:39:08.374Z,2.00
2018-07-09T10:41:36.214Z,2.50
2018-07-09T10:44:04.434Z,3.23
2018-07-09T10:46:32.480Z,2.40
2018-07-09T10:49:00.630Z,2.43
2018-07-09T10:51:28.677Z,2.30
2018-07-09T10:53:56.730Z,2.57
2018-07-09T10:56:24.777Z,3.23
2018-07-09T10:58:52.853Z,2.40
2018-07-09T11:01:20.904Z,2.47
2018-07-09T11:03:48.951Z,2.13
2018-07-09T11:06:17.025Z,2.00
2018-07-09T11:08:45.106Z,2.33
2018-07-09T11:11:13.171Z,2.90
2018-07-09T11:13:41.232Z,2.23
2018-07-09T11:16:09.299Z,2.20
2018-07-09T11:18:37.361Z,2.10
2018-07-09T11:21:05.616Z,2.57
2018-07-09T11:23:33.679Z,1.70
2018-07-09T11:26:01.722Z,1.87
2018-07-09T11:28:29.758Z,1.97
2018-07-09T11:30:57.812Z,1.97
2018-07-09T11:33:25.869Z,1.47
2018-07-09T11:35:53.919Z,1.77
2018-07-09T11:38:21.953Z,1.93
2018-07-09T11:40:50.013Z,2.17
2018-07-09T11:43:18.092Z,1.97
2018-07-09T11:45:46.161Z,2.07
2018-07-09T11:48:14.317Z,1.63
2018-07-09T11:50:42.372Z,2.60
2018-07-09T11:53:10.409Z,2.40
2018-07-09T11:55:38.495Z,2.73
2018-07-09T11:58:06.541Z,1.63
2018-07-09T12:00:34.598Z,2.00
2018-07-09T12:03:02.641Z,2.50
2018-07-09T12:05:30.693Z,2.23
2018-07-09T12:07:58.751Z,1.83
2018-07-09T12:10:26.793Z,2.20
2018-07-09T12:12:54.844Z,2.10
2018-07-09T12:15:22.907Z,2.07
2018-07-09T12:17:50.969Z,2.00
2018-07-09T12:20:19.015Z,2.00
2018-07-09T12:22:47.057Z,2.73
2018-07-09T12:25:15.142Z,2.50
2018-07-09T12:27:43.185Z,1.93
2018-07-09T12:30:11.117Z,2.50
2018-07-09T12:32:39.335Z,2.57
2018-07-09T12:35:07.175Z,2.37
2018-07-09T12:37:35.218Z,2.57
2018-07-09T12:40:03.319Z,3.07
2018-07-09T12:42:31.644Z,2.13
2018-07-09T12:44:59.713Z,1.83
2018-07-09T12:47:27.762Z,2.07
2018-07-09T12:49:55.593Z,3.60
2018-07-09T12:52:23.810Z,2.43
2018-07-09T12:54:51.861Z,2.47
2018-07-09T12:57:19.933Z,3.60
2018-07-09T12:59:48.022Z,2.33
2018-07-09T13:02:16.074Z,2.17
2018-07-09T13:04:44.130Z,2.70
2018-07-09T13:07:12.173Z,2.20
2018-07-09T13:09:40.226Z,2.13
2018-07-09T13:12:08.274Z,2.30
2018-07-09T13:14:36.429Z,2.33
2018-07-09T13:17:04.688Z,1.93
2018-07-09T13:19:32.849Z,1.73
2018-07-09T13:22:00.894Z,1.60
2018-07-09T13:24:28.949Z,2.00
2018-07-09T13:26:57.022Z,1.73
2018-07-09T13:29:25.107Z,2.53
2018-07-09T13:31:53.183Z,2.00
2018-07-09T13:34:21.246Z,1.87
2018-07-09T13:36:49.407Z,2.57
2018-07-09T13:39:17.292Z,1.33
2018-07-09T13:41:45.398Z,2.43
2018-07-09T13:44:14.110Z,2.03
2018-07-09T13:46:42.230Z,3.10
2018-07-09T13:49:10.350Z,2.07
2018-07-09T13:51:38.411Z,1.80
2018-07-09T13:54:06.526Z,2.10
2018-07-09T13:56:34.672Z,2.57
2018-07-09T13:59:02.797Z,2.60
2018-07-09T14:01:30.901Z,5.20
2018-07-09T14:03:58.954Z,1.77
2018-07-09T14:06:27.027Z,1.70
2018-07-09T14:08:56.038Z,1.73
2018-07-09T14:11:24.139Z,2.63
2018-07-09T14:13:52.214Z,2.17
2018-07-09T14:16:20.412Z,1.93
2018-07-09T14:18:48.535Z,2.07
2018-07-09T14:21:16.643Z,1.73
2018-07-09T14:23:44.897Z,2.67
2018-07-09T14:26:12.982Z,1.53
2018-07-09T14:28:41.074Z,2.73
2018-07-09T14:31:09.140Z,2.60
2018-07-09T14:33:37.175Z,2.00
2018-07-09T14:36:05.472Z,3.47
2018-07-09T14:38:33.519Z,2.53
2018-07-09T14:41:01.586Z,2.30
2018-07-09T14:43:29.640Z,1.47
2018-07-09T14:45:57.701Z,2.10
2018-07-09T14:48:25.761Z,2.77
2018-07-09T14:50:53.810Z,2.67
2018-07-09T14:53:21.873Z,1.90
2018-07-09T14:55:50.101Z,2.17
2018-07-09T14:58:18.305Z,2.40
2018-07-09T15:00:46.328Z,2.70
2018-07-09T15:03:14.367Z,2.30
2018-07-09T15:05:42.428Z,2.00
2018-07-09T15:08:10.506Z,2.00
2018-07-09T15:10:38.534Z,2.37
2018-07-09T15:13:06.673Z,2.33
2018-07-09T15:15:34.722Z,1.80
2018-07-09T15:18:02.782Z,2.50
2018-07-09T15:20:30.866Z,2.50
2018-07-09T15:22:58.912Z,1.60
2018-07-09T15:25:26.957Z,2.77
2018-07-09T15:27:55.023Z,2.40
2018-07-09T15:30:23.065Z,2.50
2018-07-09T15:32:51.117Z,2.30
2018-07-09T15:35:19.174Z,2.60
2018-07-09T15:37:47.228Z,2.47
2018-07-09T15:40:15.270Z,2.70
2018-07-09T15:42:43.318Z,3.03
2018-07-09T15:45:11.393Z,1.90
2018-07-09T15:47:39.441Z,1.80
2018-07-09T15:50:07.497Z,2.30
2018-07-09T15:52:35.571Z,2.47
2018-07-09T15:55:03.841Z,3.77
2018-07-09T15:57:31.891Z,2.40
2018-07-09T15:59:59.927Z,1.93
2018-07-09T16:02:27.977Z,2.47
2018-07-09T16:04:56.054Z,1.60
2018-07-09T16:07:24.107Z,2.40
2018-07-09T16:09:52.165Z,2.20
2018-07-09T16:12:20.226Z,2.20
2018-07-09T16:14:48.280Z,2.77
2018-07-09T16:17:16.355Z,1.77
2018-07-09T16:19:44.380Z,2.30
2018-07-09T16:22:12.454Z,1.50
2018-07-09T16:24:40.505Z,1.90
2018-07-09T16:27:08.578Z,2.30
2018-07-09T16:29:36.629Z,2.20
2018-07-09T16:32:04.689Z,2.03
2018-07-09T16:34:32.733Z,3.53
2018-07-09T16:37:00.986Z,3.70
2018-07-09T16:39:29.038Z,2.37
2018-07-09T16:41:57.093Z,2.73
2018-07-09T16:44:25.198Z,2.67
2018-07-09T16:46:53.325Z,2.40
2018-07-09T16:49:21.346Z,2.30
2018-07-09T16:51:49.417Z,3.20
2018-07-09T16:54:17.474Z,2.90
2018-07-09T16:56:45.631Z,2.60
2018-07-09T16:59:13.701Z,2.30
2018-07-09T17:01:41.748Z,3.10
2018-07-09T17:04:09.801Z,2.73
2018-07-09T17:06:37.841Z,3.40
2018-07-09T17:09:05.958Z,1.90
2018-07-09T17:11:34.014Z,2.00
2018-07-09T17:14:02.071Z,2.10
2018-07-09T17:16:30.130Z,2.07
2018-07-09T17:18:58.185Z,2.20
2018-07-09T17:21:27.187Z,2.23
2018-07-09T17:23:55.025Z,2.10
2018-07-09T17:26:23.184Z,2.50
2018-07-09T17:28:51.298Z,2.17
2018-07-09T17:31:19.385Z,2.10
2018-07-09T17:33:47.434Z,2.00
2018-07-09T17:36:15.490Z,2.30
2018-07-09T17:38:43.540Z,2.80
2018-07-09T17:41:11.585Z,2.30
2018-07-09T17:43:39.502Z,2.17
2018-07-09T17:46:07.541Z,2.90
2018-07-09T17:48:35.601Z,2.60
2018-07-09T17:51:03.665Z,3.30
2018-07-09T17:53:31.718Z,2.50
2018-07-09T17:56:00.445Z,2.60
2018-07-09T17:58:28.486Z,2.77
2018-07-09T18:00:56.535Z,3.10
2018-07-09T18:03:24.585Z,2.47
2018-07-09T18:05:52.625Z,2.30
2018-07-09T18:08:20.699Z,4.50
2018-07-09T18:10:48.922Z,2.20
2018-07-09T18:13:17.009Z,2.27
2018-07-09T18:15:45.087Z,2.50
2018-07-09T18:18:13.121Z,2.63
2018-07-09T18:20:41.186Z,2.80
2018-07-09T18:23:09.253Z,3.03
2018-07-09T18:25:37.308Z,3.23
2018-07-09T18:28:05.358Z,2.47
2018-07-09T18:30:33.437Z,3.23
2018-07-09T18:33:01.592Z,3.23
2018-07-09T18:35:29.646Z,3.30
2018-07-09T18:37:57.654Z,2.40
2018-07-09T18:40:25.705Z,2.23
2018-07-09T18:42:53.741Z,3.20
2018-07-09T18:45:21.809Z,3.70
2018-07-09T18:47:49.849Z,3.07
2018-07-09T18:50:17.956Z,3.43
2018-07-09T18:52:46.039Z,3.70
2018-07-09T18:55:14.162Z,3.60
2018-07-09T18:57:42.236Z,2.10
2018-07-09T19:00:10.438Z,3.20
2018-07-09T19:02:38.502Z,3.60
2018-07-09T19:05:06.586Z,3.60
2018-07-09T19:07:34.446Z,2.30
2018-07-09T19:10:02.532Z,2.50
2018-07-09T19:12:35.819Z,2.30
2018-07-09T19:15:06.426Z,2.93
2018-07-09T19:17:44.745Z,2.33
2018-07-09T19:20:22.990Z,2.77
2018-07-09T19:22:50.132Z,2.43
2018-07-09T19:25:17.291Z,3.10
2018-07-09T19:27:44.462Z,2.73
2018-07-09T19:30:11.613Z,3.33
2018-07-09T19:32:38.847Z,2.77
2018-07-09T19:35:06.265Z,2.67
2018-07-09T19:37:33.693Z,2.20
2018-07-09T19:40:01.441Z,3.43
2018-07-09T19:42:28.596Z,3.10
2018-07-09T19:44:55.745Z,2.53
2018-07-09T19:47:22.923Z,2.70
2018-07-09T19:49:50.054Z,2.40
2018-07-09T19:52:17.261Z,2.80
2018-07-09T19:54:44.559Z,2.53
2018-07-09T19:57:11.876Z,2.30
2018-07-09T19:59:39.072Z,3.20
2018-07-09T20:02:06.966Z,3.23
2018-07-09T20:04:34.093Z,2.37
2018-07-09T20:07:01.992Z,3.43
2018-07-09T20:11:36.866Z,2.90
2018-07-09T20:14:09.340Z,2.63
2018-07-09T20:16:42.345Z,3.60
2018-07-09T20:19:10.220Z,3.50
2018-07-09T20:21:37.478Z,3.03
2018-07-09T20:24:04.670Z,2.80
2018-07-09T20:26:32.101Z,3.30
2018-07-09T20:28:59.258Z,3.67
2018-07-09T20:31:26.405Z,3.10
2018-07-09T20:33:53.572Z,3.97
2018-07-09T20:36:21.248Z,3.33
2018-07-09T20:38:48.836Z,2.80
2018-07-09T20:41:16.196Z,2.90
2018-07-09T20:43:43.634Z,3.10
2018-07-09T20:46:10.854Z,4.40
2018-07-09T20:48:38.341Z,3.67
2018-07-09T20:51:05.506Z,2.40
2018-07-09T20:53:32.633Z,3.07
2018-07-09T20:56:00.046Z,2.90
2018-07-09T20:58:27.210Z,2.60
2018-07-09T21:00:54.351Z,3.47
2018-07-09T21:03:21.496Z,2.57
2018-07-09T21:05:48.654Z,2.80
2018-07-09T21:08:15.794Z,2.93
2018-07-09T21:10:42.941Z,2.90
2018-07-09T21:13:10.074Z,2.83
2018-07-09T21:15:37.248Z,4.13
2018-07-09T21:18:04.357Z,2.20
2018-07-09T21:20:31.513Z,2.97
2018-07-09T21:22:58.681Z,3.57
2018-07-09T21:25:25.821Z,4.40
2018-07-09T21:27:52.954Z,4.67
2018-07-09T21:30:20.094Z,3.20
2018-07-09T21:32:47.254Z,3.77
2018-07-09T21:35:14.417Z,3.67
2018-07-09T21:37:41.595Z,3.00
2018-07-09T21:40:08.697Z,3.60
2018-07-09T21:42:35.851Z,3.00
2018-07-09T21:45:02.986Z,3.30
2018-07-09T21:47:30.163Z,3.63
2018-07-09T21:49:57.289Z,2.57
2018-07-09T21:52:24.425Z,3.70
2018-07-09T21:54:51.666Z,2.97
2018-07-09T21:57:18.845Z,3.30
2018-07-09T21:59:45.981Z,3.10
2018-07-09T22:02:13.267Z,3.57
2018-07-09T22:04:40.405Z,3.13
2018-07-09T22:07:07.672Z,2.77
2018-07-09T22:09:35.056Z,3.20
2018-07-09T22:12:02.517Z,2.77
2018-07-09T22:14:29.650Z,2.90
2018-07-09T22:16:57.070Z,3.27
2018-07-09T22:19:24.290Z,3.10
2018-07-09T22:21:52.060Z,2.93
2018-07-09T22:24:19.263Z,3.50
2018-07-09T22:26:46.410Z,3.80
2018-07-09T22:29:13.550Z,3.20
2018-07-09T22:31:41.597Z,3.37
2018-07-09T22:34:10.152Z,3.03
2018-07-09T22:36:38.209Z,3.03
2018-07-09T22:39:06.421Z,3.33
2018-07-09T22:41:34.698Z,3.60
2018-07-09T22:44:14.102Z,3.40
2018-07-09T22:46:42.186Z,2.60
2018-07-09T22:49:10.786Z,3.20
2018-07-09T22:51:38.828Z,2.70
2018-07-09T22:54:07.226Z,2.23
2018-07-09T22:56:35.285Z,3.10
2018-07-09T22:59:03.330Z,2.83
2018-07-09T23:01:31.388Z,4.00
2018-07-09T23:03:59.432Z,3.40
2018-07-09T23:06:27.477Z,4.03
2018-07-09T23:18:23.030Z,3.30
2018-07-09T23:21:06.178Z,3.67
2018-07-09T23:23:33.462Z,3.60
2018-07-09T23:26:00.698Z,2.50
2018-07-09T23:28:27.830Z,2.33
2018-07-09T23:30:54.966Z,2.87
2018-07-09T23:33:22.135Z,3.20
2018-07-09T23:35:49.289Z,2.63
2018-07-09T23:38:16.426Z,3.30
2018-07-09T23:40:44.341Z,2.83
2018-07-09T23:43:11.473Z,2.80
2018-07-09T23:45:38.789Z,3.33
2018-07-09T23:48:05.929Z,4.67
2018-07-09T23:50:33.085Z,2.60
2018-07-09T23:53:00.243Z,4.20
2018-07-09T23:55:31.217Z,3.63
2018-07-09T23:58:16.454Z,3.07
